sensor_id;sensor_type;location;lat;lon;timestamp;temperature;humidity
9542;DHT22;4809;48.224;8.572;2022-10-16T00:01:57;13.90;92.50
9542;DHT22;4809;48.224;8.572;2022-10-16T00:04:22;13.80;92.50
9542;DHT22;4809;48.224;8.572;2022-10-16T00:06:48;13.80;92.40
9542;DHT22;4809;48.224;8.572;2022-10-16T00:09:14;13.90;92.40
9542;DHT22;4809;48.224;8.572;2022-10-16T00:11:40;13.90;92.40
9542;DHT22;4809;48.224;8.572;2022-10-16T00:14:09;13.90;92.40
9542;DHT22;4809;48.224;8.572;2022-10-16T00:16:35;13.90;92.50
9542;DHT22;4809;48.224;8.572;2022-10-16T00:19:02;13.90;92.40
9542;DHT22;4809;48.224;8.572;2022-10-16T00:21:29;13.90;92.40
9542;DHT22;4809;48.224;8.572;2022-10-16T00:23:57;14.00;92.40
9542;DHT22;4809;48.224;8.572;2022-10-16T00:26:25;14.00;92.50
9542;DHT22;4809;48.224;8.572;2022-10-16T00:28:52;14.00;92.50
9542;DHT22;4809;48.224;8.572;2022-10-16T00:31:19;13.90;92.50
9542;DHT22;4809;48.224;8.572;2022-10-16T00:33:45;13.90;92.50
9542;DHT22;4809;48.224;8.572;2022-10-16T00:36:14;13.90;92.60
9542;DHT22;4809;48.224;8.572;2022-10-16T00:38:41;13.90;92.60
9542;DHT22;4809;48.224;8.572;2022-10-16T00:41:09;13.90;92.50
9542;DHT22;4809;48.224;8.572;2022-10-16T00:43:49;13.80;92.60
9542;DHT22;4809;48.224;8.572;2022-10-16T00:46:24;13.80;92.70
9542;DHT22;4809;48.224;8.572;2022-10-16T00:49:11;13.80;92.60
9542;DHT22;4809;48.224;8.572;2022-10-16T00:54:30;13.70;92.90
9542;DHT22;4809;48.224;8.572;2022-10-16T00:56:55;13.60;93.00
9542;DHT22;4809;48.224;8.572;2022-10-16T00:59:31;13.60;93.30
9542;DHT22;4809;48.224;8.572;2022-10-16T01:01:57;13.60;93.40
9542;DHT22;4809;48.224;8.572;2022-10-16T01:04:25;13.60;93.40
9542;DHT22;4809;48.224;8.572;2022-10-16T01:13:00;13.70;93.30
9542;DHT22;4809;48.224;8.572;2022-10-16T01:18:23;13.60;93.40
9542;DHT22;4809;48.224;8.572;2022-10-16T01:20:58;13.70;93.50
9542;DHT22;4809;48.224;8.572;2022-10-16T01:26:18;13.70;93.50
9542;DHT22;4809;48.224;8.572;2022-10-16T01:28:57;13.70;93.90
9542;DHT22;4809;48.224;8.572;2022-10-16T01:31:26;13.80;93.60
9542;DHT22;4809;48.224;8.572;2022-10-16T01:34:15;13.80;93.50
9542;DHT22;4809;48.224;8.572;2022-10-16T01:36:47;13.80;93.50
9542;DHT22;4809;48.224;8.572;2022-10-16T01:39:14;13.80;93.50
9542;DHT22;4809;48.224;8.572;2022-10-16T01:42:00;13.80;93.50
9542;DHT22;4809;48.224;8.572;2022-10-16T01:44:29;13.80;93.50
9542;DHT22;4809;48.224;8.572;2022-10-16T01:46:56;13.80;93.50
9542;DHT22;4809;48.224;8.572;2022-10-16T01:49:26;13.90;93.50
9542;DHT22;4809;48.224;8.572;2022-10-16T01:51:56;13.90;93.40
9542;DHT22;4809;48.224;8.572;2022-10-16T01:54:26;13.90;93.50
9542;DHT22;4809;48.224;8.572;2022-10-16T01:56:53;13.80;93.50
9542;DHT22;4809;48.224;8.572;2022-10-16T01:59:23;13.90;93.50
9542;DHT22;4809;48.224;8.572;2022-10-16T02:01:52;14.00;93.20
9542;DHT22;4809;48.224;8.572;2022-10-16T02:04:51;14.00;93.20
9542;DHT22;4809;48.224;8.572;2022-10-16T02:07:18;14.00;93.20
9542;DHT22;4809;48.224;8.572;2022-10-16T02:09:44;14.00;93.20
9542;DHT22;4809;48.224;8.572;2022-10-16T02:12:25;14.00;93.10
9542;DHT22;4809;48.224;8.572;2022-10-16T02:14:52;14.00;93.20
9542;DHT22;4809;48.224;8.572;2022-10-16T02:17:19;14.10;93.30
9542;DHT22;4809;48.224;8.572;2022-10-16T02:19:46;14.00;93.10
9542;DHT22;4809;48.224;8.572;2022-10-16T02:22:27;14.00;93.10
9542;DHT22;4809;48.224;8.572;2022-10-16T02:32:39;14.00;93.10
9542;DHT22;4809;48.224;8.572;2022-10-16T02:35:07;14.00;93.00
9542;DHT22;4809;48.224;8.572;2022-10-16T02:37:34;14.10;92.70
9542;DHT22;4809;48.224;8.572;2022-10-16T02:40:00;14.10;92.80
9542;DHT22;4809;48.224;8.572;2022-10-16T02:42:34;14.20;92.80
9542;DHT22;4809;48.224;8.572;2022-10-16T02:45:00;14.10;92.70
9542;DHT22;4809;48.224;8.572;2022-10-16T02:47:26;14.10;92.70
9542;DHT22;4809;48.224;8.572;2022-10-16T02:49:52;14.00;92.80
9542;DHT22;4809;48.224;8.572;2022-10-16T02:52:17;14.00;92.90
9542;DHT22;4809;48.224;8.572;2022-10-16T02:54:43;14.00;92.70
9542;DHT22;4809;48.224;8.572;2022-10-16T02:57:09;14.00;92.80
9542;DHT22;4809;48.224;8.572;2022-10-16T02:59:34;14.10;92.70
9542;DHT22;4809;48.224;8.572;2022-10-16T03:02:00;14.00;92.80
9542;DHT22;4809;48.224;8.572;2022-10-16T03:04:26;14.10;92.90
9542;DHT22;4809;48.224;8.572;2022-10-16T03:06:51;14.00;92.80
9542;DHT22;4809;48.224;8.572;2022-10-16T03:09:17;14.00;92.80
9542;DHT22;4809;48.224;8.572;2022-10-16T03:11:42;14.00;93.00
9542;DHT22;4809;48.224;8.572;2022-10-16T03:14:08;14.00;93.00
9542;DHT22;4809;48.224;8.572;2022-10-16T03:16:34;14.00;93.00
9542;DHT22;4809;48.224;8.572;2022-10-16T03:18:59;14.00;93.00
9542;DHT22;4809;48.224;8.572;2022-10-16T03:21:25;14.00;92.90
9542;DHT22;4809;48.224;8.572;2022-10-16T03:23:50;14.00;92.80
9542;DHT22;4809;48.224;8.572;2022-10-16T03:26:16;14.00;92.90
9542;DHT22;4809;48.224;8.572;2022-10-16T03:28:42;14.00;92.80
9542;DHT22;4809;48.224;8.572;2022-10-16T03:31:07;14.00;92.80
9542;DHT22;4809;48.224;8.572;2022-10-16T03:33:33;14.00;92.80
9542;DHT22;4809;48.224;8.572;2022-10-16T03:35:59;13.90;92.80
9542;DHT22;4809;48.224;8.572;2022-10-16T03:38:27;13.90;92.90
9542;DHT22;4809;48.224;8.572;2022-10-16T03:40:53;13.90;93.10
9542;DHT22;4809;48.224;8.572;2022-10-16T03:43:19;13.90;92.90
9542;DHT22;4809;48.224;8.572;2022-10-16T03:45:44;13.90;92.90
9542;DHT22;4809;48.224;8.572;2022-10-16T03:48:10;13.90;93.00
9542;DHT22;4809;48.224;8.572;2022-10-16T03:50:36;13.90;93.10
9542;DHT22;4809;48.224;8.572;2022-10-16T03:53:02;13.80;93.20
9542;DHT22;4809;48.224;8.572;2022-10-16T03:55:28;13.80;93.10
9542;DHT22;4809;48.224;8.572;2022-10-16T03:57:54;13.80;93.20
9542;DHT22;4809;48.224;8.572;2022-10-16T04:00:19;13.80;93.10
9542;DHT22;4809;48.224;8.572;2022-10-16T04:02:45;13.80;93.10
9542;DHT22;4809;48.224;8.572;2022-10-16T04:05:10;13.80;93.10
9542;DHT22;4809;48.224;8.572;2022-10-16T04:07:36;13.80;93.10
9542;DHT22;4809;48.224;8.572;2022-10-16T04:10:03;13.80;93.10
9542;DHT22;4809;48.224;8.572;2022-10-16T04:12:32;13.90;93.00
9542;DHT22;4809;48.224;8.572;2022-10-16T04:14:57;13.90;92.90
9542;DHT22;4809;48.224;8.572;2022-10-16T04:17:23;13.90;92.90
9542;DHT22;4809;48.224;8.572;2022-10-16T04:19:48;13.90;92.80
9542;DHT22;4809;48.224;8.572;2022-10-16T04:22:14;13.90;92.90
9542;DHT22;4809;48.224;8.572;2022-10-16T04:24:40;13.80;92.90
9542;DHT22;4809;48.224;8.572;2022-10-16T04:27:05;13.80;92.90
9542;DHT22;4809;48.224;8.572;2022-10-16T04:29:31;13.80;93.00
9542;DHT22;4809;48.224;8.572;2022-10-16T04:31:57;13.80;93.10
9542;DHT22;4809;48.224;8.572;2022-10-16T04:34:22;13.90;93.10
9542;DHT22;4809;48.224;8.572;2022-10-16T04:36:48;13.80;92.90
9542;DHT22;4809;48.224;8.572;2022-10-16T04:39:17;13.80;93.00
9542;DHT22;4809;48.224;8.572;2022-10-16T04:41:42;13.80;93.20
9542;DHT22;4809;48.224;8.572;2022-10-16T04:44:08;13.70;93.20
9542;DHT22;4809;48.224;8.572;2022-10-16T04:46:34;13.70;93.30
9542;DHT22;4809;48.224;8.572;2022-10-16T04:49:00;13.70;93.20
9542;DHT22;4809;48.224;8.572;2022-10-16T04:51:25;13.80;93.20
9542;DHT22;4809;48.224;8.572;2022-10-16T04:53:53;13.80;93.10
9542;DHT22;4809;48.224;8.572;2022-10-16T04:56:19;13.80;93.00
9542;DHT22;4809;48.224;8.572;2022-10-16T04:58:46;13.70;93.00
9542;DHT22;4809;48.224;8.572;2022-10-16T05:01:11;13.70;93.10
9542;DHT22;4809;48.224;8.572;2022-10-16T05:03:37;13.70;93.00
9542;DHT22;4809;48.224;8.572;2022-10-16T05:06:05;13.70;93.10
9542;DHT22;4809;48.224;8.572;2022-10-16T05:08:31;13.70;93.20
9542;DHT22;4809;48.224;8.572;2022-10-16T05:10:57;13.70;93.10
9542;DHT22;4809;48.224;8.572;2022-10-16T05:13:22;13.70;93.50
9542;DHT22;4809;48.224;8.572;2022-10-16T05:15:48;13.70;93.10
9542;DHT22;4809;48.224;8.572;2022-10-16T05:18:14;13.70;93.00
9542;DHT22;4809;48.224;8.572;2022-10-16T05:20:41;13.70;93.00
9542;DHT22;4809;48.224;8.572;2022-10-16T05:23:07;13.70;93.30
9542;DHT22;4809;48.224;8.572;2022-10-16T05:25:36;13.70;93.00
9542;DHT22;4809;48.224;8.572;2022-10-16T05:28:01;13.70;93.10
9542;DHT22;4809;48.224;8.572;2022-10-16T05:30:27;13.70;93.00
9542;DHT22;4809;48.224;8.572;2022-10-16T05:32:53;13.70;93.00
9542;DHT22;4809;48.224;8.572;2022-10-16T05:35:19;13.70;93.00
9542;DHT22;4809;48.224;8.572;2022-10-16T05:37:45;13.70;93.00
9542;DHT22;4809;48.224;8.572;2022-10-16T05:40:11;13.70;93.00
9542;DHT22;4809;48.224;8.572;2022-10-16T05:42:38;13.70;93.00
9542;DHT22;4809;48.224;8.572;2022-10-16T05:45:05;13.70;92.90
9542;DHT22;4809;48.224;8.572;2022-10-16T05:47:31;13.70;93.00
9542;DHT22;4809;48.224;8.572;2022-10-16T05:49:57;13.70;93.00
9542;DHT22;4809;48.224;8.572;2022-10-16T05:52:22;13.70;93.00
9542;DHT22;4809;48.224;8.572;2022-10-16T05:54:48;13.70;92.90
9542;DHT22;4809;48.224;8.572;2022-10-16T05:57:14;13.70;93.00
9542;DHT22;4809;48.224;8.572;2022-10-16T05:59:40;13.70;92.90
9542;DHT22;4809;48.224;8.572;2022-10-16T06:02:05;13.80;92.80
9542;DHT22;4809;48.224;8.572;2022-10-16T06:04:31;13.70;92.90
9542;DHT22;4809;48.224;8.572;2022-10-16T06:06:59;13.70;92.90
9542;DHT22;4809;48.224;8.572;2022-10-16T06:09:28;13.70;92.90
9542;DHT22;4809;48.224;8.572;2022-10-16T06:11:54;13.70;92.90
9542;DHT22;4809;48.224;8.572;2022-10-16T06:14:19;13.80;93.20
9542;DHT22;4809;48.224;8.572;2022-10-16T06:16:45;13.80;92.70
9542;DHT22;4809;48.224;8.572;2022-10-16T06:19:10;13.80;92.70
9542;DHT22;4809;48.224;8.572;2022-10-16T06:21:36;13.80;92.70
9542;DHT22;4809;48.224;8.572;2022-10-16T06:24:02;13.80;92.70
9542;DHT22;4809;48.224;8.572;2022-10-16T06:26:29;13.80;92.60
9542;DHT22;4809;48.224;8.572;2022-10-16T06:28:56;13.90;92.60
9542;DHT22;4809;48.224;8.572;2022-10-16T06:31:23;13.90;92.60
9542;DHT22;4809;48.224;8.572;2022-10-16T06:33:52;13.90;92.50
9542;DHT22;4809;48.224;8.572;2022-10-16T06:36:18;14.00;92.40
9542;DHT22;4809;48.224;8.572;2022-10-16T06:38:44;14.00;92.40
9542;DHT22;4809;48.224;8.572;2022-10-16T06:41:16;14.10;92.40
9542;DHT22;4809;48.224;8.572;2022-10-16T06:43:42;14.10;92.60
9542;DHT22;4809;48.224;8.572;2022-10-16T06:46:10;14.20;92.00
9542;DHT22;4809;48.224;8.572;2022-10-16T06:48:36;14.20;92.00
9542;DHT22;4809;48.224;8.572;2022-10-16T06:51:13;14.20;91.90
9542;DHT22;4809;48.224;8.572;2022-10-16T06:53:41;14.20;92.20
9542;DHT22;4809;48.224;8.572;2022-10-16T06:58:34;14.40;91.70
9542;DHT22;4809;48.224;8.572;2022-10-16T07:01:00;14.50;91.80
9542;DHT22;4809;48.224;8.572;2022-10-16T07:03:25;14.50;91.50
9542;DHT22;4809;48.224;8.572;2022-10-16T07:05:51;14.50;91.40
9542;DHT22;4809;48.224;8.572;2022-10-16T07:08:17;14.50;91.40
9542;DHT22;4809;48.224;8.572;2022-10-16T07:10:42;14.50;91.30
9542;DHT22;4809;48.224;8.572;2022-10-16T07:13:08;14.60;91.30
9542;DHT22;4809;48.224;8.572;2022-10-16T07:15:34;14.60;91.30
9542;DHT22;4809;48.224;8.572;2022-10-16T07:17:59;14.70;91.20
9542;DHT22;4809;48.224;8.572;2022-10-16T07:20:25;14.70;91.40
9542;DHT22;4809;48.224;8.572;2022-10-16T07:22:51;14.70;91.20
9542;DHT22;4809;48.224;8.572;2022-10-16T07:25:17;14.80;91.30
9542;DHT22;4809;48.224;8.572;2022-10-16T07:27:43;14.80;91.10
9542;DHT22;4809;48.224;8.572;2022-10-16T07:30:09;14.80;91.00
9542;DHT22;4809;48.224;8.572;2022-10-16T07:32:35;14.90;90.80
9542;DHT22;4809;48.224;8.572;2022-10-16T07:35:00;14.90;91.10
9542;DHT22;4809;48.224;8.572;2022-10-16T07:37:26;14.90;90.80
9542;DHT22;4809;48.224;8.572;2022-10-16T07:39:51;15.00;91.00
9542;DHT22;4809;48.224;8.572;2022-10-16T07:42:17;15.00;90.80
9542;DHT22;4809;48.224;8.572;2022-10-16T07:44:43;15.10;90.50
9542;DHT22;4809;48.224;8.572;2022-10-16T07:47:09;15.10;90.50
9542;DHT22;4809;48.224;8.572;2022-10-16T07:49:34;15.20;90.50
9542;DHT22;4809;48.224;8.572;2022-10-16T07:52:00;15.20;90.40
9542;DHT22;4809;48.224;8.572;2022-10-16T07:54:25;15.20;90.40
9542;DHT22;4809;48.224;8.572;2022-10-16T07:56:51;15.20;90.40
9542;DHT22;4809;48.224;8.572;2022-10-16T07:59:17;15.30;90.40
9542;DHT22;4809;48.224;8.572;2022-10-16T08:01:42;15.40;90.20
9542;DHT22;4809;48.224;8.572;2022-10-16T08:04:09;15.50;90.10
9542;DHT22;4809;48.224;8.572;2022-10-16T08:06:37;15.60;90.00
9542;DHT22;4809;48.224;8.572;2022-10-16T08:09:03;15.70;89.80
9542;DHT22;4809;48.224;8.572;2022-10-16T08:11:29;15.80;89.70
9542;DHT22;4809;48.224;8.572;2022-10-16T08:13:55;15.80;89.10
9542;DHT22;4809;48.224;8.572;2022-10-16T08:16:21;15.80;88.50
9542;DHT22;4809;48.224;8.572;2022-10-16T08:18:46;15.80;88.60
9542;DHT22;4809;48.224;8.572;2022-10-16T08:21:17;15.90;87.80
9542;DHT22;4809;48.224;8.572;2022-10-16T08:23:43;16.00;88.10
9542;DHT22;4809;48.224;8.572;2022-10-16T08:26:12;16.00;87.20
9542;DHT22;4809;48.224;8.572;2022-10-16T08:28:38;16.10;87.50
9542;DHT22;4809;48.224;8.572;2022-10-16T08:31:14;16.20;87.60
9542;DHT22;4809;48.224;8.572;2022-10-16T08:33:42;16.40;87.30
9542;DHT22;4809;48.224;8.572;2022-10-16T08:36:09;16.50;86.80
9542;DHT22;4809;48.224;8.572;2022-10-16T08:38:35;16.60;86.30
9542;DHT22;4809;48.224;8.572;2022-10-16T08:49:12;16.60;85.70
9542;DHT22;4809;48.224;8.572;2022-10-16T08:51:39;16.70;84.70
9542;DHT22;4809;48.224;8.572;2022-10-16T08:54:44;16.70;84.90
9542;DHT22;4809;48.224;8.572;2022-10-16T08:57:22;16.60;85.60
9542;DHT22;4809;48.224;8.572;2022-10-16T08:59:50;16.60;85.10
9542;DHT22;4809;48.224;8.572;2022-10-16T09:02:42;16.60;85.00
9542;DHT22;4809;48.224;8.572;2022-10-16T09:08:18;16.80;84.60
9542;DHT22;4809;48.224;8.572;2022-10-16T09:16:19;17.10;83.70
9542;DHT22;4809;48.224;8.572;2022-10-16T09:21:30;17.20;83.40
9542;DHT22;4809;48.224;8.572;2022-10-16T09:24:18;17.10;82.90
9542;DHT22;4809;48.224;8.572;2022-10-16T09:26:44;17.20;83.80
9542;DHT22;4809;48.224;8.572;2022-10-16T09:29:15;17.20;83.70
9542;DHT22;4809;48.224;8.572;2022-10-16T09:31:41;17.10;83.80
9542;DHT22;4809;48.224;8.572;2022-10-16T09:36:46;17.00;83.60
9542;DHT22;4809;48.224;8.572;2022-10-16T09:39:12;16.90;83.80
9542;DHT22;4809;48.224;8.572;2022-10-16T09:41:40;16.90;84.20
9542;DHT22;4809;48.224;8.572;2022-10-16T09:44:18;16.90;84.00
9542;DHT22;4809;48.224;8.572;2022-10-16T09:46:44;16.80;84.20
9542;DHT22;4809;48.224;8.572;2022-10-16T09:49:36;16.90;84.90
9542;DHT22;4809;48.224;8.572;2022-10-16T09:52:14;16.90;84.10
9542;DHT22;4809;48.224;8.572;2022-10-16T09:55:12;17.00;84.10
9542;DHT22;4809;48.224;8.572;2022-10-16T09:57:51;17.20;83.80
9542;DHT22;4809;48.224;8.572;2022-10-16T10:00:18;17.50;82.70
9542;DHT22;4809;48.224;8.572;2022-10-16T10:02:45;17.80;82.40
9542;DHT22;4809;48.224;8.572;2022-10-16T10:05:37;18.20;81.10
9542;DHT22;4809;48.224;8.572;2022-10-16T10:08:04;18.80;79.40
9542;DHT22;4809;48.224;8.572;2022-10-16T10:10:33;19.10;77.10
9542;DHT22;4809;48.224;8.572;2022-10-16T10:13:00;19.60;75.80
9542;DHT22;4809;48.224;8.572;2022-10-16T10:15:32;20.30;73.90
9542;DHT22;4809;48.224;8.572;2022-10-16T10:17:58;20.80;71.20
9542;DHT22;4809;48.224;8.572;2022-10-16T10:22:53;21.90;68.80
9542;DHT22;4809;48.224;8.572;2022-10-16T10:31:02;22.80;60.20
9542;DHT22;4809;48.224;8.572;2022-10-16T10:34:05;22.60;61.40
9542;DHT22;4809;48.224;8.572;2022-10-16T10:36:37;22.20;64.00
9542;DHT22;4809;48.224;8.572;2022-10-16T10:39:14;22.00;64.20
9542;DHT22;4809;48.224;8.572;2022-10-16T10:50:14;23.20;61.10
9542;DHT22;4809;48.224;8.572;2022-10-16T11:00:36;24.20;56.40
9542;DHT22;4809;48.224;8.572;2022-10-16T11:08:22;24.30;56.30
9542;DHT22;4809;48.224;8.572;2022-10-16T11:11:15;24.60;56.20
9542;DHT22;4809;48.224;8.572;2022-10-16T11:19:15;23.90;57.80
9542;DHT22;4809;48.224;8.572;2022-10-16T11:21:51;23.60;58.50
9542;DHT22;4809;48.224;8.572;2022-10-16T11:27:19;23.60;58.80
9542;DHT22;4809;48.224;8.572;2022-10-16T11:29:55;23.90;60.20
9542;DHT22;4809;48.224;8.572;2022-10-16T11:32:35;24.20;56.80
9542;DHT22;4809;48.224;8.572;2022-10-16T11:35:17;24.50;57.50
9542;DHT22;4809;48.224;8.572;2022-10-16T11:37:46;24.90;56.30
9542;DHT22;4809;48.224;8.572;2022-10-16T11:43:26;25.30;53.90
9542;DHT22;4809;48.224;8.572;2022-10-16T11:46:01;25.30;53.90
9542;DHT22;4809;48.224;8.572;2022-10-16T11:49:02;25.40;52.90
9542;DHT22;4809;48.224;8.572;2022-10-16T11:51:38;25.80;53.10
9542;DHT22;4809;48.224;8.572;2022-10-16T11:56:41;26.70;51.30
9542;DHT22;4809;48.224;8.572;2022-10-16T11:59:29;26.90;49.90
9542;DHT22;4809;48.224;8.572;2022-10-16T12:05:05;26.00;50.60
9542;DHT22;4809;48.224;8.572;2022-10-16T12:07:36;25.90;51.80
9542;DHT22;4809;48.224;8.572;2022-10-16T12:10:20;26.10;50.80
9542;DHT22;4809;48.224;8.572;2022-10-16T12:12:46;26.60;51.00
9542;DHT22;4809;48.224;8.572;2022-10-16T12:17:43;27.00;48.80
9542;DHT22;4809;48.224;8.572;2022-10-16T12:22:54;27.40;49.20
9542;DHT22;4809;48.224;8.572;2022-10-16T12:30:30;27.50;48.20
9542;DHT22;4809;48.224;8.572;2022-10-16T12:33:05;27.50;48.30
9542;DHT22;4809;48.224;8.572;2022-10-16T12:35:34;27.50;48.50
9542;DHT22;4809;48.224;8.572;2022-10-16T12:40:42;28.20;46.30
9542;DHT22;4809;48.224;8.572;2022-10-16T12:45:46;28.50;44.30
9542;DHT22;4809;48.224;8.572;2022-10-16T12:48:22;28.90;43.70
9542;DHT22;4809;48.224;8.572;2022-10-16T12:50:48;29.00;42.90
9542;DHT22;4809;48.224;8.572;2022-10-16T12:53:25;28.60;42.90
9542;DHT22;4809;48.224;8.572;2022-10-16T12:56:21;28.30;45.40
9542;DHT22;4809;48.224;8.572;2022-10-16T12:58:53;27.80;46.40
9542;DHT22;4809;48.224;8.572;2022-10-16T13:24:15;27.70;46.80
9542;DHT22;4809;48.224;8.572;2022-10-16T13:27:07;28.10;45.70
9542;DHT22;4809;48.224;8.572;2022-10-16T13:29:35;28.30;45.20
9542;DHT22;4809;48.224;8.572;2022-10-16T13:32:09;28.10;44.90
9542;DHT22;4809;48.224;8.572;2022-10-16T13:34:46;27.70;45.00
9542;DHT22;4809;48.224;8.572;2022-10-16T13:37:18;27.20;46.30
9542;DHT22;4809;48.224;8.572;2022-10-16T13:39:45;27.30;47.10
9542;DHT22;4809;48.224;8.572;2022-10-16T13:42:12;27.30;47.00
9542;DHT22;4809;48.224;8.572;2022-10-16T13:44:45;27.30;45.80
9542;DHT22;4809;48.224;8.572;2022-10-16T13:47:20;27.40;46.40
9542;DHT22;4809;48.224;8.572;2022-10-16T13:49:47;29.70;42.20
9542;DHT22;4809;48.224;8.572;2022-10-16T13:52:20;32.70;37.10
9542;DHT22;4809;48.224;8.572;2022-10-16T13:54:46;35.70;31.20
9542;DHT22;4809;48.224;8.572;2022-10-16T13:57:14;38.00;28.80
9542;DHT22;4809;48.224;8.572;2022-10-16T13:59:40;39.10;26.00
9542;DHT22;4809;48.224;8.572;2022-10-16T14:02:26;39.50;26.50
9542;DHT22;4809;48.224;8.572;2022-10-16T14:04:53;38.70;26.10
9542;DHT22;4809;48.224;8.572;2022-10-16T14:07:31;39.30;26.80
9542;DHT22;4809;48.224;8.572;2022-10-16T14:10:05;39.60;25.90
9542;DHT22;4809;48.224;8.572;2022-10-16T14:12:31;40.00;25.40
9542;DHT22;4809;48.224;8.572;2022-10-16T14:14:59;40.60;25.50
9542;DHT22;4809;48.224;8.572;2022-10-16T14:17:27;39.30;24.70
9542;DHT22;4809;48.224;8.572;2022-10-16T14:19:56;36.40;28.10
9542;DHT22;4809;48.224;8.572;2022-10-16T14:22:40;33.90;30.70
9542;DHT22;4809;48.224;8.572;2022-10-16T14:25:28;32.90;32.90
9542;DHT22;4809;48.224;8.572;2022-10-16T14:28:04;32.90;33.30
9542;DHT22;4809;48.224;8.572;2022-10-16T14:30:33;33.30;33.30
9542;DHT22;4809;48.224;8.572;2022-10-16T14:36:15;35.90;31.20
9542;DHT22;4809;48.224;8.572;2022-10-16T14:41:15;38.20;27.90
9542;DHT22;4809;48.224;8.572;2022-10-16T14:43:42;40.40;25.40
9542;DHT22;4809;48.224;8.572;2022-10-16T14:46:22;41.30;24.60
9542;DHT22;4809;48.224;8.572;2022-10-16T14:48:58;41.30;23.90
9542;DHT22;4809;48.224;8.572;2022-10-16T14:51:25;39.40;26.20
9542;DHT22;4809;48.224;8.572;2022-10-16T14:53:51;37.20;28.20
9542;DHT22;4809;48.224;8.572;2022-10-16T14:56:20;36.30;28.20
9542;DHT22;4809;48.224;8.572;2022-10-16T14:58:47;35.40;29.50
9542;DHT22;4809;48.224;8.572;2022-10-16T15:01:12;34.50;30.00
9542;DHT22;4809;48.224;8.572;2022-10-16T15:03:38;34.70;30.50
9542;DHT22;4809;48.224;8.572;2022-10-16T15:06:13;35.40;29.80
9542;DHT22;4809;48.224;8.572;2022-10-16T15:08:39;36.60;28.40
9542;DHT22;4809;48.224;8.572;2022-10-16T15:11:05;35.60;29.40
9542;DHT22;4809;48.224;8.572;2022-10-16T15:13:34;34.20;31.90
9542;DHT22;4809;48.224;8.572;2022-10-16T15:16:00;33.20;33.40
9542;DHT22;4809;48.224;8.572;2022-10-16T15:18:26;32.30;35.50
9542;DHT22;4809;48.224;8.572;2022-10-16T15:20:52;32.90;34.50
9542;DHT22;4809;48.224;8.572;2022-10-16T15:23:21;32.60;35.10
9542;DHT22;4809;48.224;8.572;2022-10-16T15:28:15;32.30;35.80
9542;DHT22;4809;48.224;8.572;2022-10-16T15:30:42;31.60;37.00
9542;DHT22;4809;48.224;8.572;2022-10-16T15:33:14;30.00;39.50
9542;DHT22;4809;48.224;8.572;2022-10-16T15:35:40;28.50;42.70
9542;DHT22;4809;48.224;8.572;2022-10-16T15:38:06;27.30;45.70
9542;DHT22;4809;48.224;8.572;2022-10-16T15:40:31;26.40;47.30
9542;DHT22;4809;48.224;8.572;2022-10-16T15:42:57;25.60;49.20
9542;DHT22;4809;48.224;8.572;2022-10-16T15:45:23;25.10;50.40
9542;DHT22;4809;48.224;8.572;2022-10-16T15:47:49;24.50;51.90
9542;DHT22;4809;48.224;8.572;2022-10-16T15:50:15;24.10;52.50
9542;DHT22;4809;48.224;8.572;2022-10-16T15:52:41;23.80;53.70
9542;DHT22;4809;48.224;8.572;2022-10-16T15:55:09;23.40;54.30
9542;DHT22;4809;48.224;8.572;2022-10-16T15:57:36;23.20;55.10
9542;DHT22;4809;48.224;8.572;2022-10-16T16:00:05;23.00;56.20
9542;DHT22;4809;48.224;8.572;2022-10-16T16:02:32;22.80;56.70
9542;DHT22;4809;48.224;8.572;2022-10-16T16:04:57;22.60;58.00
9542;DHT22;4809;48.224;8.572;2022-10-16T16:07:23;22.40;60.10
9542;DHT22;4809;48.224;8.572;2022-10-16T16:09:48;22.20;60.80
9542;DHT22;4809;48.224;8.572;2022-10-16T16:12:14;21.90;62.90
9542;DHT22;4809;48.224;8.572;2022-10-16T16:14:40;21.70;63.10
9542;DHT22;4809;48.224;8.572;2022-10-16T16:17:06;21.50;63.60
9542;DHT22;4809;48.224;8.572;2022-10-16T16:19:32;21.30;65.10
9542;DHT22;4809;48.224;8.572;2022-10-16T16:21:58;21.00;66.00
9542;DHT22;4809;48.224;8.572;2022-10-16T16:24:24;20.70;66.60
9542;DHT22;4809;48.224;8.572;2022-10-16T16:26:49;20.50;67.10
9542;DHT22;4809;48.224;8.572;2022-10-16T16:29:15;20.40;67.50
9542;DHT22;4809;48.224;8.572;2022-10-16T16:31:42;20.10;68.30
9542;DHT22;4809;48.224;8.572;2022-10-16T16:34:08;19.90;69.20
9542;DHT22;4809;48.224;8.572;2022-10-16T16:36:34;19.70;69.00
9542;DHT22;4809;48.224;8.572;2022-10-16T16:39:00;19.60;69.40
9542;DHT22;4809;48.224;8.572;2022-10-16T16:41:28;19.50;69.30
9542;DHT22;4809;48.224;8.572;2022-10-16T16:43:55;19.30;69.60
9542;DHT22;4809;48.224;8.572;2022-10-16T16:46:26;19.20;69.40
9542;DHT22;4809;48.224;8.572;2022-10-16T16:48:51;19.00;69.50
9542;DHT22;4809;48.224;8.572;2022-10-16T16:51:20;18.80;69.30
9542;DHT22;4809;48.224;8.572;2022-10-16T16:53:50;18.70;70.20
9542;DHT22;4809;48.224;8.572;2022-10-16T16:56:16;18.50;70.50
9542;DHT22;4809;48.224;8.572;2022-10-16T16:58:45;18.30;70.40
9542;DHT22;4809;48.224;8.572;2022-10-16T17:01:10;18.20;70.40
9542;DHT22;4809;48.224;8.572;2022-10-16T17:03:36;18.00;69.90
9542;DHT22;4809;48.224;8.572;2022-10-16T17:06:05;18.00;69.10
9542;DHT22;4809;48.224;8.572;2022-10-16T17:08:31;18.00;69.10
9542;DHT22;4809;48.224;8.572;2022-10-16T17:10:57;17.80;69.00
9542;DHT22;4809;48.224;8.572;2022-10-16T17:13:24;17.80;67.80
9542;DHT22;4809;48.224;8.572;2022-10-16T17:15:51;17.80;67.50
9542;DHT22;4809;48.224;8.572;2022-10-16T17:18:18;17.80;68.10
9542;DHT22;4809;48.224;8.572;2022-10-16T17:20:44;17.70;67.50
9542;DHT22;4809;48.224;8.572;2022-10-16T17:23:10;17.70;67.10
9542;DHT22;4809;48.224;8.572;2022-10-16T17:25:39;17.70;67.00
9542;DHT22;4809;48.224;8.572;2022-10-16T17:28:06;17.70;66.30
9542;DHT22;4809;48.224;8.572;2022-10-16T17:30:33;17.70;66.00
9542;DHT22;4809;48.224;8.572;2022-10-16T17:33:00;17.70;66.00
9542;DHT22;4809;48.224;8.572;2022-10-16T17:35:27;17.80;66.10
9542;DHT22;4809;48.224;8.572;2022-10-16T17:37:53;17.80;67.20
9542;DHT22;4809;48.224;8.572;2022-10-16T17:40:19;17.80;66.70
9542;DHT22;4809;48.224;8.572;2022-10-16T17:42:44;17.80;66.80
9542;DHT22;4809;48.224;8.572;2022-10-16T17:45:10;17.70;67.20
9542;DHT22;4809;48.224;8.572;2022-10-16T17:47:36;17.70;67.90
9542;DHT22;4809;48.224;8.572;2022-10-16T17:50:03;17.60;68.40
9542;DHT22;4809;48.224;8.572;2022-10-16T17:52:28;17.60;69.00
9542;DHT22;4809;48.224;8.572;2022-10-16T17:54:54;17.50;69.40
9542;DHT22;4809;48.224;8.572;2022-10-16T17:57:21;17.40;69.80
9542;DHT22;4809;48.224;8.572;2022-10-16T17:59:47;17.40;70.40
9542;DHT22;4809;48.224;8.572;2022-10-16T18:02:12;17.30;71.00
9542;DHT22;4809;48.224;8.572;2022-10-16T18:04:39;17.30;71.70
9542;DHT22;4809;48.224;8.572;2022-10-16T18:07:05;17.30;72.40
9542;DHT22;4809;48.224;8.572;2022-10-16T18:09:31;17.20;73.00
9542;DHT22;4809;48.224;8.572;2022-10-16T18:12:00;17.20;73.60
9542;DHT22;4809;48.224;8.572;2022-10-16T18:14:28;17.20;74.00
9542;DHT22;4809;48.224;8.572;2022-10-16T18:16:54;17.20;74.50
9542;DHT22;4809;48.224;8.572;2022-10-16T18:19:21;17.10;74.80
9542;DHT22;4809;48.224;8.572;2022-10-16T18:21:48;17.20;75.20
9542;DHT22;4809;48.224;8.572;2022-10-16T18:24:14;17.10;75.50
9542;DHT22;4809;48.224;8.572;2022-10-16T18:26:40;17.10;75.80
9542;DHT22;4809;48.224;8.572;2022-10-16T18:29:06;17.10;76.00
9542;DHT22;4809;48.224;8.572;2022-10-16T18:31:32;17.10;76.10
9542;DHT22;4809;48.224;8.572;2022-10-16T18:33:58;17.10;76.60